Ana Sayfa
METAR-TAF:

METAR-TAF

Havaalanları :

Enugu, Nijerya

Enlem: 06-28N, Boylam: 007-33E, yükseklik: 137 m

Güncel hava durumu gözlemi

Rapor saat 01:00 UTC de 6 saat ve 16 dakika önce yapıldı.
Rüzgar değişken yönden 2 kt
Sıcaklık 26°C
Nem 94%
Basınç 1011 hPa
Görüş mesafesi 10 km veya daha fazla
1000 ft yükseklikte parçalı bulutlu
2000 ft yükseklikte az bulutlu, Kümülonimbus.
gök gürültülü fırtına,

METAR: DNEN 190100Z VRB02KT 9999 TS SCT010 FEW020CB 26/25 Q1011 NOSIG

Saat: 08:16 (07:16 UTC)


TAF: eksik

4.000'den fazla havaalanı için hava durumu gözlemleri ve tahminleri (METAR ve TAF raporları).

Kullanılabilir istasyonlar harita üzerinde sarı ve kırmızı noktalarla gösterilir.

İstasyonun adını görmek için fareyi noktanın üzerinde gezdirin.

Sonrasında hava gözlem ve tahminlerini görmek için tıklayın.

Haritayı değiştirmek için: yaklaştırmak için siyah artı işaretli yeşil düğmeye ve uzaklaştırmak için de eksi işaretli düğmeye hızla tıklayın; bitişik haritalar için yeşil okları kullanın.


METAR-TAF: